Time;durP1;ratioP1;P1;durP2;ratioP2;P2;SDS_P1;SDS_P2;PMS_P1;PMS_P2;Temp;Humidity;BMP_temperature;BMP_pressure;BME280_temperature;BME280_humidity;BME280_pressure;Samples;Min_cycle;Max_cycle;Signal;HPM_P1;HPM_P2
2021/05/30 00:00:21;;;;;;;4.95;3.40;;;;;;;;;;5028876;28;20407;-49
2021/05/30 00:02:47;;;;;;;6.88;4.00;;;;;;;;;;5016400;28;20065;-48
2021/05/30 00:05:13;;;;;;;4.93;3.80;;;;;;;;;;5024103;28;20068;-48
2021/05/30 00:07:40;;;;;;;8.90;4.47;;;;;;;;;;5027773;28;20481;-48
2021/05/30 00:10:06;;;;;;;5.32;3.65;;;;;;;;;;5029607;28;20029;-48
2021/05/30 00:12:33;;;;;;;7.85;4.47;;;;;;;;;;5028562;28;20463;-51
2021/05/30 00:14:59;;;;;;;6.13;3.95;;;;;;;;;;5022425;28;20064;-47
2021/05/30 00:17:25;;;;;;;5.90;3.67;;;;;;;;;;5012799;28;20416;-49
2021/05/30 00:19:51;;;;;;;8.15;4.38;;;;;;;;;;5020230;28;20029;-48
2021/05/30 00:22:17;;;;;;;8.38;4.60;;;;;;;;;;5015318;28;20068;-48
2021/05/30 00:24:43;;;;;;;5.68;4.50;;;;;;;;;;5012184;28;20084;-48
2021/05/30 00:27:09;;;;;;;6.90;4.55;;;;;;;;;;5011677;28;20469;-48
2021/05/30 00:29:35;;;;;;;12.85;4.80;;;;;;;;;;5012181;28;20034;-48
2021/05/30 00:32:01;;;;;;;7.47;4.20;;;;;;;;;;5011873;28;20933;-48
2021/05/30 00:34:27;;;;;;;8.18;4.45;;;;;;;;;;5012602;28;20042;-48
2021/05/30 00:36:53;;;;;;;6.70;4.57;;;;;;;;;;5014554;28;20046;-48
2021/05/30 00:39:19;;;;;;;10.32;5.07;;;;;;;;;;5012246;28;20117;-48
2021/05/30 00:41:45;;;;;;;6.63;4.68;;;;;;;;;;5012288;28;20064;-48
2021/05/30 00:44:24;;;;;;;7.40;5.03;;;;;;;;;;5011657;28;20021;-48
2021/05/30 00:46:51;;;;;;;5.55;4.20;;;;;;;;;;5010220;28;20022;-51
2021/05/30 00:49:17;;;;;;;9.13;5.22;;;;;;;;;;5012164;28;20501;-48
2021/05/30 00:51:43;;;;;;;8.60;5.28;;;;;;;;;;5012107;28;20045;-50
2021/05/30 00:54:09;;;;;;;10.25;4.93;;;;;;;;;;5011688;28;20034;-48
2021/05/30 00:56:36;;;;;;;8.60;5.15;;;;;;;;;;5011616;28;20378;-48
2021/05/30 00:59:04;;;;;;;9.35;4.88;;;;;;;;;;5011331;28;20520;-50
2021/05/30 01:01:30;;;;;;;7.68;5.03;;;;;;;;;;5015395;28;20412;-50
2021/05/30 01:03:56;;;;;;;10.30;6.05;;;;;;;;;;5014853;28;20030;-52
2021/05/30 01:06:23;;;;;;;9.70;6.00;;;;;;;;;;5011575;28;20033;-50
2021/05/30 01:08:49;;;;;;;7.70;4.97;;;;;;;;;;5026354;28;20108;-50
2021/05/30 01:11:16;;;;;;;10.80;5.38;;;;;;;;;;5025412;28;20030;-49
2021/05/30 01:13:44;;;;;;;8.95;5.93;;;;;;;;;;5011651;28;20421;-49
2021/05/30 01:16:12;;;;;;;9.88;5.40;;;;;;;;;;5004405;28;20030;-50
2021/05/30 01:18:38;;;;;;;8.07;5.25;;;;;;;;;;5003578;28;20053;-50
2021/05/30 01:21:04;;;;;;;9.40;6.18;;;;;;;;;;5014423;28;20046;-50
2021/05/30 01:23:31;;;;;;;9.93;6.00;;;;;;;;;;5016452;28;20478;-51
2021/05/30 01:25:57;;;;;;;9.13;5.70;;;;;;;;;;5019164;28;20057;-52
2021/05/30 01:28:23;;;;;;;10.18;5.72;;;;;;;;;;5012642;28;20080;-50
2021/05/30 01:30:51;;;;;;;10.30;5.93;;;;;;;;;;5014825;28;20056;-52
2021/05/30 01:33:18;;;;;;;9.60;5.68;;;;;;;;;;5015314;28;20080;-51
2021/05/30 01:35:44;;;;;;;10.93;5.97;;;;;;;;;;5014581;28;20417;-49
2021/05/30 01:38:10;;;;;;;9.80;5.82;;;;;;;;;;5014587;28;20084;-50
2021/05/30 01:40:36;;;;;;;7.40;5.72;;;;;;;;;;5013708;28;20026;-50
2021/05/30 01:43:02;;;;;;;11.43;6.28;;;;;;;;;;5015037;28;20065;-49
2021/05/30 01:45:30;;;;;;;11.27;6.15;;;;;;;;;;5014468;28;20376;-49
2021/05/30 01:47:56;;;;;;;10.43;5.90;;;;;;;;;;5014740;28;20030;-50
2021/05/30 01:50:24;;;;;;;9.50;6.30;;;;;;;;;;5005121;28;20105;-49
2021/05/30 01:52:51;;;;;;;9.10;5.75;;;;;;;;;;5011919;28;20049;-49
2021/05/30 01:55:22;;;;;;;10.02;6.38;;;;;;;;;;5020975;28;20025;-51
2021/05/30 01:57:49;;;;;;;9.40;5.75;;;;;;;;;;5009202;28;20539;-50
2021/05/30 02:00:16;;;;;;;9.85;5.75;;;;;;;;;;5008647;28;20049;-51
2021/05/30 02:02:44;;;;;;;7.95;5.72;;;;;;;;;;5002989;28;20450;-51
2021/05/30 02:05:11;;;;;;;10.02;5.82;;;;;;;;;;5007774;28;20092;-50
2021/05/30 02:07:39;;;;;;;8.07;5.68;;;;;;;;;;5010823;28;20038;-50
2021/05/30 02:10:05;;;;;;;11.00;6.80;;;;;;;;;;5019303;28;20042;-50
2021/05/30 02:12:33;;;;;;;7.05;5.45;;;;;;;;;;5014542;28;20122;-49
2021/05/30 02:14:59;;;;;;;9.02;5.00;;;;;;;;;;5008167;28;20065;-50
2021/05/30 02:17:25;;;;;;;8.00;5.82;;;;;;;;;;5015477;28;20139;-50
2021/05/30 02:19:55;;;;;;;10.73;6.47;;;;;;;;;;5010134;28;20049;-50
2021/05/30 02:22:21;;;;;;;9.85;6.70;;;;;;;;;;5012802;28;20593;-52
2021/05/30 02:24:47;;;;;;;8.32;5.60;;;;;;;;;;5014236;28;20060;-50
2021/05/30 02:27:13;;;;;;;9.45;6.00;;;;;;;;;;5009344;28;20363;-49
2021/05/30 02:29:40;;;;;;;8.50;5.60;;;;;;;;;;5009948;28;20029;-50
2021/05/30 02:32:08;;;;;;;8.52;5.65;;;;;;;;;;5012465;28;20476;-50
2021/05/30 02:34:34;;;;;;;7.63;5.43;;;;;;;;;;5006308;28;20030;-49
2021/05/30 02:37:01;;;;;;;10.18;6.32;;;;;;;;;;5012636;28;20056;-51
2021/05/30 02:39:27;;;;;;;8.57;5.47;;;;;;;;;;5013423;28;20076;-51
2021/05/30 02:41:53;;;;;;;8.32;5.80;;;;;;;;;;5013582;28;20097;-49
2021/05/30 02:44:19;;;;;;;9.20;6.25;;;;;;;;;;5006036;28;20110;-50
2021/05/30 02:46:45;;;;;;;8.65;5.68;;;;;;;;;;5010503;28;20390;-49
2021/05/30 02:49:11;;;;;;;7.50;5.40;;;;;;;;;;5012532;28;20061;-51
2021/05/30 02:51:37;;;;;;;10.45;6.20;;;;;;;;;;5001930;28;20030;-49
2021/05/30 02:54:03;;;;;;;9.07;5.68;;;;;;;;;;5011376;28;20037;-52
2021/05/30 02:56:29;;;;;;;9.23;5.75;;;;;;;;;;5012409;28;20076;-49
2021/05/30 02:58:55;;;;;;;7.93;5.28;;;;;;;;;;5006118;28;20030;-50
2021/05/30 03:01:22;;;;;;;7.20;5.20;;;;;;;;;;5003818;28;20061;-50
2021/05/30 03:03:49;;;;;;;9.18;6.13;;;;;;;;;;5017185;28;20108;-50
2021/05/30 03:06:15;;;;;;;14.98;6.00;;;;;;;;;;5003324;28;20432;-52
2021/05/30 03:08:41;;;;;;;7.45;5.57;;;;;;;;;;5011438;28;20028;-49
2021/05/30 03:11:08;;;;;;;8.00;6.25;;;;;;;;;;5000387;28;20073;-50
2021/05/30 03:13:34;;;;;;;8.93;6.25;;;;;;;;;;5012229;28;20026;-50
2021/05/30 03:16:00;;;;;;;10.50;6.20;;;;;;;;;;5005174;28;20030;-51
2021/05/30 03:18:26;;;;;;;10.68;6.13;;;;;;;;;;5009255;28;20026;-50
2021/05/30 03:20:52;;;;;;;8.90;5.70;;;;;;;;;;5008498;28;20061;-50
2021/05/30 03:23:18;;;;;;;8.02;6.30;;;;;;;;;;5013153;28;20870;-52
2021/05/30 03:25:44;;;;;;;8.98;6.15;;;;;;;;;;5017441;28;20062;-51
2021/05/30 03:28:10;;;;;;;10.88;6.32;;;;;;;;;;5012499;28;20044;-50
2021/05/30 03:30:36;;;;;;;8.80;6.05;;;;;;;;;;5000188;28;20050;-50
2021/05/30 03:33:02;;;;;;;9.52;6.47;;;;;;;;;;5007423;28;20480;-50
2021/05/30 03:35:29;;;;;;;11.20;5.70;;;;;;;;;;5006349;28;20243;-50
2021/05/30 03:37:57;;;;;;;12.32;6.10;;;;;;;;;;5004039;28;20061;-51
2021/05/30 03:40:28;;;;;;;8.38;6.25;;;;;;;;;;5004506;28;20026;-51
2021/05/30 03:42:54;;;;;;;10.05;6.30;;;;;;;;;;5013342;28;20034;-50
2021/05/30 03:45:21;;;;;;;7.53;5.68;;;;;;;;;;5010427;28;20030;-49
2021/05/30 03:47:47;;;;;;;9.93;6.43;;;;;;;;;;5003066;28;20034;-50
2021/05/30 03:50:13;;;;;;;8.02;6.32;;;;;;;;;;5012389;28;20625;-51
2021/05/30 03:52:39;;;;;;;10.27;6.50;;;;;;;;;;5012667;28;20030;-51
2021/05/30 03:55:06;;;;;;;9.02;6.57;;;;;;;;;;5011871;28;20079;-51
2021/05/30 03:57:32;;;;;;;7.85;6.40;;;;;;;;;;5011377;28;20044;-49
2021/05/30 04:00:01;;;;;;;10.93;7.20;;;;;;;;;;5011920;28;20022;-49
2021/05/30 04:02:27;;;;;;;11.00;7.03;;;;;;;;;;5009906;28;20026;-49
2021/05/30 04:04:53;;;;;;;8.15;6.18;;;;;;;;;;5011111;28;20385;-50
2021/05/30 04:07:19;;;;;;;8.90;5.90;;;;;;;;;;5003367;28;20038;-49
2021/05/30 04:09:45;;;;;;;11.32;6.07;;;;;;;;;;5008332;28;20467;-50
2021/05/30 04:12:11;;;;;;;10.30;6.20;;;;;;;;;;5012251;28;20088;-51
2021/05/30 04:14:37;;;;;;;12.52;5.80;;;;;;;;;;5011713;28;20029;-50
2021/05/30 04:17:03;;;;;;;13.48;6.82;;;;;;;;;;5011546;28;20037;-52
2021/05/30 04:19:29;;;;;;;9.13;5.82;;;;;;;;;;5011902;28;20117;-52
2021/05/30 04:21:55;;;;;;;9.93;6.00;;;;;;;;;;5011382;28;20382;-49
2021/05/30 04:24:21;;;;;;;14.30;5.88;;;;;;;;;;5007591;28;20114;-51
2021/05/30 04:26:47;;;;;;;11.68;6.82;;;;;;;;;;5013355;28;20048;-50
2021/05/30 04:29:13;;;;;;;10.60;6.32;;;;;;;;;;5003946;28;20026;-49
2021/05/30 04:31:39;;;;;;;11.35;6.72;;;;;;;;;;5004991;28;20049;-49
2021/05/30 04:34:05;;;;;;;12.65;6.53;;;;;;;;;;5011067;28;20026;-49
2021/05/30 04:36:31;;;;;;;12.48;6.10;;;;;;;;;;5013854;28;20045;-49
2021/05/30 04:38:57;;;;;;;9.88;7.13;;;;;;;;;;5001961;28;20057;-50
2021/05/30 04:41:23;;;;;;;9.40;6.55;;;;;;;;;;5003781;28;20031;-49
2021/05/30 04:43:49;;;;;;;10.52;6.45;;;;;;;;;;5011388;28;20021;-50
2021/05/30 04:46:16;;;;;;;10.07;6.28;;;;;;;;;;5011276;28;20033;-50
2021/05/30 04:48:42;;;;;;;8.45;6.05;;;;;;;;;;5010146;28;20489;-50
2021/05/30 04:51:14;;;;;;;9.38;6.22;;;;;;;;;;5006999;28;20034;-51
2021/05/30 04:53:40;;;;;;;9.75;6.38;;;;;;;;;;5007664;28;20038;-51
2021/05/30 04:56:07;;;;;;;8.48;5.85;;;;;;;;;;5006239;28;20026;-51
2021/05/30 04:58:33;;;;;;;10.75;6.22;;;;;;;;;;5018453;28;20108;-53
2021/05/30 05:01:00;;;;;;;9.88;6.72;;;;;;;;;;5009126;28;20026;-50
2021/05/30 05:03:27;;;;;;;10.93;5.68;;;;;;;;;;5013478;28;20429;-51
2021/05/30 05:05:55;;;;;;;10.07;5.50;;;;;;;;;;5013585;28;20120;-52
2021/05/30 05:08:21;;;;;;;9.38;5.57;;;;;;;;;;5015156;28;20076;-49
2021/05/30 05:10:48;;;;;;;10.95;5.85;;;;;;;;;;5013790;28;20061;-50
2021/05/30 05:13:14;;;;;;;8.27;5.22;;;;;;;;;;5015323;28;20041;-49
2021/05/30 05:15:41;;;;;;;11.40;6.38;;;;;;;;;;5011299;28;20382;-49
2021/05/30 05:18:14;;;;;;;8.95;5.25;;;;;;;;;;5014846;28;20044;-50
2021/05/30 05:20:40;;;;;;;11.18;5.10;;;;;;;;;;5014285;28;20592;-49
2021/05/30 05:23:06;;;;;;;8.52;4.85;;;;;;;;;;5012301;28;20449;-50
2021/05/30 05:25:35;;;;;;;6.72;4.63;;;;;;;;;;5015561;28;20109;-49
2021/05/30 05:28:01;;;;;;;8.05;5.55;;;;;;;;;;5007059;28;20025;-50
2021/05/30 05:30:27;;;;;;;11.82;5.03;;;;;;;;;;5010685;28;20050;-52
2021/05/30 05:32:53;;;;;;;5.35;3.80;;;;;;;;;;5018799;28;20041;-51
2021/05/30 05:35:19;;;;;;;9.23;4.93;;;;;;;;;;5004235;28;20037;-51
2021/05/30 05:37:45;;;;;;;7.55;4.38;;;;;;;;;;5012355;28;20042;-50
2021/05/30 05:40:11;;;;;;;6.20;4.00;;;;;;;;;;5005131;28;20026;-50
2021/05/30 05:42:38;;;;;;;9.55;4.15;;;;;;;;;;5012992;28;20458;-49
2021/05/30 05:45:05;;;;;;;6.32;4.32;;;;;;;;;;5009121;28;20026;-50
2021/05/30 05:47:31;;;;;;;7.82;3.85;;;;;;;;;;5013610;28;20030;-50
2021/05/30 05:49:57;;;;;;;5.18;3.10;;;;;;;;;;5006735;28;20809;-50
2021/05/30 05:52:23;;;;;;;6.70;3.60;;;;;;;;;;5011105;28;20034;-49
2021/05/30 05:54:52;;;;;;;6.13;3.20;;;;;;;;;;5005348;28;20029;-50
2021/05/30 05:57:18;;;;;;;5.60;3.15;;;;;;;;;;5015977;28;20065;-50
2021/05/30 05:59:44;;;;;;;5.72;3.13;;;;;;;;;;5015654;28;20025;-49
2021/05/30 06:02:12;;;;;;;5.78;3.67;;;;;;;;;;5019496;28;20049;-52
2021/05/30 06:04:38;;;;;;;3.30;2.45;;;;;;;;;;5015139;28;20030;-51
2021/05/30 06:07:04;;;;;;;5.35;2.75;;;;;;;;;;5015607;28;20575;-50
2021/05/30 06:09:30;;;;;;;5.45;2.40;;;;;;;;;;5010580;28;20550;-50
2021/05/30 06:11:56;;;;;;;6.13;2.65;;;;;;;;;;5011471;28;20026;-50
2021/05/30 06:14:22;;;;;;;6.07;2.53;;;;;;;;;;5010455;28;20037;-51
2021/05/30 06:16:48;;;;;;;5.25;2.70;;;;;;;;;;5013173;28;20747;-49
2021/05/30 06:19:14;;;;;;;4.90;2.17;;;;;;;;;;5013096;28;20025;-51
2021/05/30 06:21:40;;;;;;;4.35;2.45;;;;;;;;;;5011501;28;20026;-49
2021/05/30 06:24:06;;;;;;;5.18;2.33;;;;;;;;;;5014061;28;20034;-50
2021/05/30 06:26:32;;;;;;;6.93;2.53;;;;;;;;;;5014323;28;20429;-49
2021/05/30 06:28:58;;;;;;;5.57;2.72;;;;;;;;;;5013988;28;20034;-53
2021/05/30 06:31:24;;;;;;;2.95;2.03;;;;;;;;;;5007585;28;20367;-49
2021/05/30 06:33:50;;;;;;;4.85;2.00;;;;;;;;;;5012662;28;20026;-49
2021/05/30 06:36:18;;;;;;;2.92;1.83;;;;;;;;;;5012618;28;20547;-52
2021/05/30 06:38:44;;;;;;;3.13;2.50;;;;;;;;;;5009629;28;20386;-51
2021/05/30 06:41:11;;;;;;;5.90;2.00;;;;;;;;;;5011682;28;20033;-51
2021/05/30 06:43:36;;;;;;;4.88;2.08;;;;;;;;;;5009462;28;20032;-52
2021/05/30 06:46:02;;;;;;;5.45;1.70;;;;;;;;;;5010313;28;20026;-50
2021/05/30 06:48:28;;;;;;;8.50;2.45;;;;;;;;;;5016180;28;20061;-50
2021/05/30 06:51:14;;;;;;;5.53;2.20;;;;;;;;;;5012351;28;20101;-50
2021/05/30 06:53:40;;;;;;;3.20;1.88;;;;;;;;;;5006530;28;20490;-52
2021/05/30 06:56:06;;;;;;;5.10;1.80;;;;;;;;;;5007979;28;20449;-50
2021/05/30 06:58:33;;;;;;;5.93;2.70;;;;;;;;;;5011151;28;20037;-50
2021/05/30 07:00:59;;;;;;;6.82;2.03;;;;;;;;;;5007800;28;20032;-49
2021/05/30 07:03:25;;;;;;;4.95;1.80;;;;;;;;;;5016124;28;20021;-50
2021/05/30 07:05:51;;;;;;;4.68;2.05;;;;;;;;;;5009701;28;20021;-54
2021/05/30 07:08:17;;;;;;;5.80;1.83;;;;;;;;;;5012843;28;20038;-51
2021/05/30 07:10:43;;;;;;;3.92;2.10;;;;;;;;;;5009432;28;20045;-50
2021/05/30 07:13:09;;;;;;;4.88;1.90;;;;;;;;;;5012405;28;20133;-50
2021/05/30 07:15:35;;;;;;;3.63;2.08;;;;;;;;;;5008257;28;20486;-52
2021/05/30 07:18:01;;;;;;;4.82;2.10;;;;;;;;;;5002818;28;20036;-54
2021/05/30 07:20:27;;;;;;;3.20;1.83;;;;;;;;;;5002841;28;20030;-50
2021/05/30 07:22:53;;;;;;;4.55;1.80;;;;;;;;;;5009031;28;20101;-51
2021/05/30 07:25:19;;;;;;;7.70;2.25;;;;;;;;;;5014274;28;20041;-50
2021/05/30 07:27:45;;;;;;;6.00;1.63;;;;;;;;;;5008309;28;20446;-52
2021/05/30 07:30:12;;;;;;;3.15;1.45;;;;;;;;;;5005546;28;20060;-52
2021/05/30 07:32:38;;;;;;;3.80;2.00;;;;;;;;;;5005489;28;20038;-52
2021/05/30 07:35:04;;;;;;;5.00;1.95;;;;;;;;;;5016267;28;20056;-50
2021/05/30 07:37:30;;;;;;;3.70;1.58;;;;;;;;;;5013712;28;20037;-50
2021/05/30 07:39:56;;;;;;;5.60;1.90;;;;;;;;;;5014378;28;20022;-50
2021/05/30 07:42:22;;;;;;;4.88;1.50;;;;;;;;;;5014086;28;20018;-52
2021/05/30 07:44:48;;;;;;;5.82;2.00;;;;;;;;;;5011535;28;20057;-50
2021/05/30 07:47:14;;;;;;;3.22;1.58;;;;;;;;;;5012703;28;20499;-52
2021/05/30 07:49:39;;;;;;;3.15;1.50;;;;;;;;;;5013769;28;20017;-50
2021/05/30 07:52:06;;;;;;;2.70;1.40;;;;;;;;;;5013811;28;20033;-51
2021/05/30 07:54:32;;;;;;;7.22;1.80;;;;;;;;;;5008278;28;20084;-51
2021/05/30 07:56:58;;;;;;;4.72;1.58;;;;;;;;;;5012677;28;20038;-51
2021/05/30 07:59:24;;;;;;;5.30;1.98;;;;;;;;;;5013818;28;20478;-50
2021/05/30 08:01:51;;;;;;;3.33;1.55;;;;;;;;;;5008372;28;20026;-50
2021/05/30 08:04:17;;;;;;;4.97;1.38;;;;;;;;;;5006631;28;20524;-50
2021/05/30 08:06:43;;;;;;;4.80;1.52;;;;;;;;;;5004366;28;20026;-50
2021/05/30 08:09:09;;;;;;;5.35;1.90;;;;;;;;;;5009685;28;20038;-50
2021/05/30 08:11:35;;;;;;;7.38;1.80;;;;;;;;;;5006516;28;20377;-54
2021/05/30 08:14:01;;;;;;;4.70;1.48;;;;;;;;;;5015340;28;20021;-55
2021/05/30 08:16:27;;;;;;;8.15;1.67;;;;;;;;;;4998386;28;20463;-49
2021/05/30 08:18:53;;;;;;;7.50;2.05;;;;;;;;;;5001535;28;19917;-50
2021/05/30 08:21:19;;;;;;;4.15;1.52;;;;;;;;;;5009980;28;20030;-51
2021/05/30 08:23:46;;;;;;;4.28;1.52;;;;;;;;;;5010919;28;20112;-53
2021/05/30 08:26:12;;;;;;;6.57;2.03;;;;;;;;;;5008487;28;20044;-50
2021/05/30 08:28:38;;;;;;;4.50;1.52;;;;;;;;;;5010675;28;20466;-51
2021/05/30 08:31:04;;;;;;;5.32;1.92;;;;;;;;;;5011272;28;20042;-49
2021/05/30 08:33:30;;;;;;;5.45;1.55;;;;;;;;;;5010434;28;20113;-50
2021/05/30 08:35:56;;;;;;;2.35;1.30;;;;;;;;;;5013633;28;20040;-50
2021/05/30 08:38:23;;;;;;;7.38;2.20;;;;;;;;;;5003852;28;20047;-50
2021/05/30 08:40:50;;;;;;;3.10;1.30;;;;;;;;;;5012660;28;20044;-50
2021/05/30 08:43:16;;;;;;;5.32;1.80;;;;;;;;;;5016293;28;20021;-50
2021/05/30 08:45:43;;;;;;;3.95;1.50;;;;;;;;;;5007901;28;20022;-50
2021/05/30 08:48:09;;;;;;;4.50;1.80;;;;;;;;;;5013057;28;20512;-50
2021/05/30 08:50:35;;;;;;;3.78;1.70;;;;;;;;;;5004920;28;20036;-50
2021/05/30 08:53:01;;;;;;;3.00;1.40;;;;;;;;;;5016323;28;20098;-50
2021/05/30 08:55:27;;;;;;;3.58;1.48;;;;;;;;;;5006583;28;20130;-50
2021/05/30 08:57:53;;;;;;;3.60;1.40;;;;;;;;;;5012876;28;20054;-52
2021/05/30 09:00:24;;;;;;;3.20;1.60;;;;;;;;;;5002804;28;20014;-54
2021/05/30 09:03:09;;;;;;;3.28;1.50;;;;;;;;;;5007249;28;20041;-51
2021/05/30 09:05:36;;;;;;;4.10;1.60;;;;;;;;;;5007702;28;20040;-51
2021/05/30 09:08:02;;;;;;;5.85;1.80;;;;;;;;;;5010953;28;20574;-51
2021/05/30 09:10:29;;;;;;;4.25;1.50;;;;;;;;;;5014232;28;20517;-51
2021/05/30 09:13:05;;;;;;;2.75;1.33;;;;;;;;;;5010804;28;20029;-51
2021/05/30 09:18:34;;;;;;;2.87;1.50;;;;;;;;;;5007861;28;20470;-52
2021/05/30 09:21:05;;;;;;;3.25;1.75;;;;;;;;;;5008216;28;20088;-51
2021/05/30 09:23:51;;;;;;;3.85;1.40;;;;;;;;;;5005518;28;20085;-50
2021/05/30 09:26:23;;;;;;;3.72;1.52;;;;;;;;;;5010422;28;20140;-50
2021/05/30 09:29:07;;;;;;;5.25;1.80;;;;;;;;;;5010450;28;20033;-51
2021/05/30 09:31:34;;;;;;;4.20;1.55;;;;;;;;;;5007909;28;20042;-51
2021/05/30 09:34:00;;;;;;;3.45;1.38;;;;;;;;;;5000785;28;20335;-50
2021/05/30 09:36:26;;;;;;;2.55;1.55;;;;;;;;;;5015325;28;20532;-50
2021/05/30 09:39:05;;;;;;;5.43;1.73;;;;;;;;;;5008409;28;20037;-51
2021/05/30 09:41:31;;;;;;;4.63;1.75;;;;;;;;;;5012522;28;20079;-53
2021/05/30 09:43:57;;;;;;;3.97;1.08;;;;;;;;;;5009765;28;20098;-51
2021/05/30 09:46:24;;;;;;;4.32;1.33;;;;;;;;;;5008892;28;20105;-54
2021/05/30 09:48:50;;;;;;;4.63;1.27;;;;;;;;;;5012087;28;20049;-52
2021/05/30 09:51:25;;;;;;;3.03;1.50;;;;;;;;;;5013994;28;20458;-50
2021/05/30 09:53:54;;;;;;;3.90;1.20;;;;;;;;;;5008941;28;20088;-49
2021/05/30 09:56:31;;;;;;;2.72;1.27;;;;;;;;;;5007820;28;20386;-51
2021/05/30 09:58:58;;;;;;;3.95;1.85;;;;;;;;;;5006549;28;20041;-53
2021/05/30 10:01:25;;;;;;;3.13;1.40;;;;;;;;;;5015628;28;20030;-53
2021/05/30 10:03:52;;;;;;;2.28;1.17;;;;;;;;;;5012117;28;20371;-53
2021/05/30 10:06:18;;;;;;;10.30;1.30;;;;;;;;;;5013668;28;20040;-51
2021/05/30 10:08:44;;;;;;;6.05;2.22;;;;;;;;;;5012889;28;20389;-52
2021/05/30 10:11:11;;;;;;;2.88;1.52;;;;;;;;;;5020551;28;20041;-54
2021/05/30 10:13:36;;;;;;;3.80;1.50;;;;;;;;;;5015375;28;20497;-53
2021/05/30 10:16:03;;;;;;;1.77;1.27;;;;;;;;;;5012680;28;20026;-51
2021/05/30 10:18:33;;;;;;;3.05;1.20;;;;;;;;;;5015067;28;20029;-51
2021/05/30 10:20:59;;;;;;;2.88;1.58;;;;;;;;;;5014991;28;20109;-50
2021/05/30 10:23:25;;;;;;;2.95;1.60;;;;;;;;;;5017462;28;20100;-54
2021/05/30 10:25:51;;;;;;;4.80;1.63;;;;;;;;;;5010659;28;20018;-50
2021/05/30 10:28:18;;;;;;;2.53;1.38;;;;;;;;;;5014189;28;20484;-53
2021/05/30 10:30:46;;;;;;;3.65;1.35;;;;;;;;;;5003897;28;20046;-53
2021/05/30 10:33:13;;;;;;;4.47;1.58;;;;;;;;;;5009334;28;20041;-54
2021/05/30 10:35:39;;;;;;;3.13;1.27;;;;;;;;;;5004896;28;20092;-52
2021/05/30 10:38:05;;;;;;;2.92;1.55;;;;;;;;;;5012298;28;20041;-51
2021/05/30 10:40:36;;;;;;;3.97;1.63;;;;;;;;;;5016644;28;20021;-50
2021/05/30 10:43:08;;;;;;;3.00;1.40;;;;;;;;;;5033435;28;20497;-51
2021/05/30 10:45:35;;;;;;;5.80;1.42;;;;;;;;;;5006275;28;20018;-51
2021/05/30 10:48:03;;;;;;;2.13;1.20;;;;;;;;;;5022990;28;20034;-52
2021/05/30 10:50:34;;;;;;;3.15;1.10;;;;;;;;;;5029969;28;20068;-50
2021/05/30 10:53:01;;;;;;;2.78;1.25;;;;;;;;;;5024011;28;20030;-50
2021/05/30 10:55:28;;;;;;;4.97;1.60;;;;;;;;;;5018399;28;20041;-51
2021/05/30 10:57:54;;;;;;;3.15;1.20;;;;;;;;;;5019291;28;20029;-51
2021/05/30 11:00:20;;;;;;;3.35;1.20;;;;;;;;;;5030725;28;20059;-51
2021/05/30 11:03:05;;;;;;;3.47;1.27;;;;;;;;;;5016070;28;20045;-50
2021/05/30 11:05:41;;;;;;;4.13;1.15;;;;;;;;;;5003405;28;20038;-50
2021/05/30 11:08:07;;;;;;;5.00;1.67;;;;;;;;;;5029232;28;20041;-51
2021/05/30 11:10:36;;;;;;;1.92;1.50;;;;;;;;;;5015886;28;20029;-51
2021/05/30 11:13:02;;;;;;;4.53;1.60;;;;;;;;;;5029488;28;20031;-51
2021/05/30 11:15:29;;;;;;;4.68;1.30;;;;;;;;;;5022715;28;20034;-49
2021/05/30 11:17:59;;;;;;;2.35;1.40;;;;;;;;;;5020855;28;20033;-50
2021/05/30 11:20:30;;;;;;;7.35;1.50;;;;;;;;;;5014280;28;20666;-50
2021/05/30 11:23:00;;;;;;;3.80;1.42;;;;;;;;;;5027047;28;20033;-51
2021/05/30 11:25:34;;;;;;;3.70;1.50;;;;;;;;;;5012630;28;20052;-49
2021/05/30 11:27:59;;;;;;;;;;;;;;;;;;5019483;28;20030;-49
2021/05/30 11:30:44;;;;;;;4.28;1.25;;;;;;;;;;5013003;28;19952;-50
2021/05/30 11:33:12;;;;;;;6.85;1.80;;;;;;;;;;5005689;28;20087;-50
2021/05/30 11:35:38;;;;;;;3.03;1.60;;;;;;;;;;4996809;28;20118;-50
2021/05/30 11:38:04;;;;;;;5.93;1.73;;;;;;;;;;5008815;28;20073;-53
2021/05/30 11:40:34;;;;;;;3.47;1.45;;;;;;;;;;5002247;28;20462;-49
2021/05/30 11:43:10;;;;;;;3.50;1.63;;;;;;;;;;5006975;28;20026;-50
2021/05/30 11:45:38;;;;;;;2.38;1.42;;;;;;;;;;5003879;28;20424;-50
2021/05/30 11:48:08;;;;;;;2.30;1.38;;;;;;;;;;5020070;28;20036;-49
2021/05/30 11:50:36;;;;;;;3.67;1.52;;;;;;;;;;5009375;28;20025;-51
2021/05/30 11:53:09;;;;;;;3.10;1.38;;;;;;;;;;5008836;28;20026;-53
2021/05/30 11:55:38;;;;;;;4.75;1.40;;;;;;;;;;5003704;28;20056;-50
2021/05/30 11:58:05;;;;;;;4.35;1.38;;;;;;;;;;5008515;28;20042;-50
2021/05/30 12:00:31;;;;;;;2.55;1.40;;;;;;;;;;5008347;28;20481;-49
2021/05/30 12:02:57;;;;;;;3.20;1.38;;;;;;;;;;5006779;28;20030;-51
2021/05/30 12:05:23;;;;;;;5.55;1.65;;;;;;;;;;5006067;28;20105;-51
2021/05/30 12:07:50;;;;;;;2.38;1.52;;;;;;;;;;5009711;28;20547;-51
2021/05/30 12:10:16;;;;;;;2.33;1.10;;;;;;;;;;5006499;28;20036;-51
2021/05/30 12:12:43;;;;;;;1.50;1.25;;;;;;;;;;5012740;28;20036;-50
2021/05/30 12:15:09;;;;;;;1.98;0.90;;;;;;;;;;5015518;28;20517;-50
2021/05/30 12:17:36;;;;;;;2.72;1.30;;;;;;;;;;5009210;28;20045;-51
2021/05/30 12:20:02;;;;;;;2.50;1.05;;;;;;;;;;5017759;28;20108;-53
2021/05/30 12:22:30;;;;;;;4.07;1.20;;;;;;;;;;5013909;28;20026;-51
2021/05/30 12:24:57;;;;;;;5.93;1.73;;;;;;;;;;5013753;28;20524;-51
2021/05/30 12:27:24;;;;;;;4.10;1.25;;;;;;;;;;5009080;28;20034;-54
2021/05/30 12:29:51;;;;;;;2.60;1.35;;;;;;;;;;5014512;28;20076;-52
2021/05/30 12:32:18;;;;;;;2.38;1.08;;;;;;;;;;5011620;28;20032;-52
2021/05/30 12:34:44;;;;;;;2.58;1.10;;;;;;;;;;5003373;28;20058;-51
2021/05/30 12:37:10;;;;;;;4.10;1.50;;;;;;;;;;5010145;28;20577;-52
2021/05/30 12:39:36;;;;;;;2.60;1.20;;;;;;;;;;5011304;28;20061;-53
2021/05/30 12:42:05;;;;;;;6.00;1.50;;;;;;;;;;5011016;28;20109;-51
2021/05/30 12:44:48;;;;;;;3.80;1.55;;;;;;;;;;5004403;28;20697;-54
2021/05/30 12:47:19;;;;;;;3.17;1.25;;;;;;;;;;5009254;28;20025;-55
2021/05/30 12:49:54;;;;;;;2.70;1.30;;;;;;;;;;5011491;28;20449;-52
2021/05/30 12:52:20;;;;;;;6.47;1.08;;;;;;;;;;5010335;28;20032;-56
2021/05/30 12:54:56;;;;;;;2.17;1.08;;;;;;;;;;5015473;28;20029;-50
2021/05/30 12:57:39;;;;;;;3.88;1.13;;;;;;;;;;5028617;28;20033;-51
2021/05/30 13:00:08;;;;;;;4.33;1.30;;;;;;;;;;5001049;28;20077;-50
2021/05/30 13:02:34;;;;;;;4.05;1.30;;;;;;;;;;5016466;28;20291;-51
2021/05/30 13:05:00;;;;;;;3.38;1.20;;;;;;;;;;5018613;28;20427;-51
2021/05/30 13:07:30;;;;;;;2.80;1.17;;;;;;;;;;5020538;28;20113;-51
2021/05/30 13:10:01;;;;;;;3.58;1.10;;;;;;;;;;5031879;28;20029;-54
2021/05/30 13:12:29;;;;;;;7.90;1.40;;;;;;;;;;5029421;28;20186;-50
2021/05/30 13:15:09;;;;;;;3.58;1.33;;;;;;;;;;5020393;28;20469;-51
2021/05/30 13:17:36;;;;;;;2.25;1.00;;;;;;;;;;5014319;28;20132;-51
2021/05/30 13:20:13;;;;;;;3.15;1.10;;;;;;;;;;5021834;28;20037;-52
2021/05/30 13:22:57;;;;;;;2.53;1.10;;;;;;;;;;5020148;28;20475;-53
2021/05/30 13:25:27;;;;;;;2.45;1.40;;;;;;;;;;5006091;28;20022;-55
2021/05/30 13:28:11;;;;;;;3.28;1.10;;;;;;;;;;5018287;28;20037;-55
2021/05/30 13:30:37;;;;;;;2.90;1.10;;;;;;;;;;5014948;28;20068;-52
2021/05/30 13:33:02;;;;;;;5.25;1.30;;;;;;;;;;5019573;28;20026;-53
2021/05/30 13:35:28;;;;;;;7.18;1.48;;;;;;;;;;5026268;28;20037;-53
2021/05/30 13:37:54;;;;;;;3.83;1.30;;;;;;;;;;5013440;28;20037;-51
2021/05/30 13:40:20;;;;;;;3.58;1.20;;;;;;;;;;5020226;28;20065;-54
2021/05/30 13:42:46;;;;;;;3.45;1.27;;;;;;;;;;5023753;28;20089;-51
2021/05/30 13:45:13;;;;;;;6.55;1.50;;;;;;;;;;5021834;28;20026;-53
2021/05/30 13:47:39;;;;;;;3.70;1.25;;;;;;;;;;5020294;28;20022;-52
2021/05/30 13:50:05;;;;;;;2.70;1.08;;;;;;;;;;5016740;28;20088;-54
2021/05/30 13:52:31;;;;;;;3.90;1.10;;;;;;;;;;5016293;28;20037;-54
2021/05/30 13:54:57;;;;;;;5.13;1.17;;;;;;;;;;5023723;28;20037;-48
2021/05/30 13:57:23;;;;;;;4.00;1.10;;;;;;;;;;5004295;28;20045;-54
2021/05/30 13:59:50;;;;;;;5.15;1.33;;;;;;;;;;5017184;28;20076;-54
2021/05/30 14:02:16;;;;;;;2.20;0.90;;;;;;;;;;5013972;28;20056;-52
2021/05/30 14:04:42;;;;;;;3.78;0.95;;;;;;;;;;5012937;28;20026;-53
2021/05/30 14:07:08;;;;;;;5.97;0.93;;;;;;;;;;5016461;28;20034;-50
2021/05/30 14:09:34;;;;;;;6.82;1.10;;;;;;;;;;5021251;28;20021;-51
2021/05/30 14:12:00;;;;;;;2.90;1.00;;;;;;;;;;5013616;28;20049;-52
2021/05/30 14:14:26;;;;;;;4.80;1.20;;;;;;;;;;5026192;28;20048;-50
2021/05/30 14:16:52;;;;;;;2.00;1.00;;;;;;;;;;5024630;28;20026;-52
2021/05/30 14:19:18;;;;;;;7.13;1.08;;;;;;;;;;5013027;28;20109;-50
2021/05/30 14:21:44;;;;;;;2.30;1.35;;;;;;;;;;5017638;28;20061;-50
2021/05/30 14:24:10;;;;;;;1.92;0.82;;;;;;;;;;5012490;28;20382;-52
2021/05/30 14:26:36;;;;;;;1.67;0.85;;;;;;;;;;5011318;28;20041;-50
2021/05/30 14:29:02;;;;;;;1.15;0.70;;;;;;;;;;5015317;28;20029;-51
2021/05/30 14:31:29;;;;;;;2.95;0.95;;;;;;;;;;5012966;28;20148;-49
2021/05/30 14:33:56;;;;;;;3.78;1.08;;;;;;;;;;5015305;28;20055;-55
2021/05/30 14:36:22;;;;;;;3.50;1.58;;;;;;;;;;5020444;28;20057;-49
2021/05/30 14:38:48;;;;;;;3.03;1.00;;;;;;;;;;5016387;28;20037;-51
2021/05/30 14:41:14;;;;;;;2.95;1.00;;;;;;;;;;5015940;28;20028;-54
2021/05/30 14:43:40;;;;;;;3.25;1.10;;;;;;;;;;5014339;28;20030;-53